ADL weather

Adelaide International Airport
Adelaide, South Australia, Australia

Public forecast

Using degrees Celsius for public forecast. Weather courtesy of forecast.io.

METAR (pilot weather report)

Retrieved 2018/02/25 19:00 UTC (20 minutes ago):

YPAD 251900Z 12006KT CAVOK 13/07 Q1015 NOSIG

TAF (pilot weather forecast)

Retrieved 2018/02/25 18:00 UTC (1 hour ago):

TAF YPAD 251711Z 2518/2624 13012KT CAVOK FM252100 VRB05KT CAVOK FM260200 25008KT CAVOK FM260500 22014KT CAVOK FM261000 VRB05KT CAVOK FM261500 03010KT CAVOK